Tobol'Sk, Russia
Current Conditions -  °F | °C
As of 8:00 PM on Tuesday 21 Oct 2014 (Local Time) from USTR Reporting Station
Clear Clear  
Wind Chill: -2°   Ceiling: Unl
Heat Index:   Visibility: 6mi
Dew Point:   Wind: 7mph
Humidity: 85%   Direction: 220°SW
Pressure: 29.88"   Gusts: NA
Location:  58.15°N, 68.25°E
Report Text: USTR 211500Z 22003MPS CAVOK M13/M15 Q1012 NOSIG RMK QFE751/100112450355 03////99
Loading
Personal Weather Stations






























Interactive Weather Map
Tropical Storm Tracking
New forecast layout! Learn more

10-Day Weather Forecast

Advertisements
Track Severe Weather on mobile